Time;durP1;ratioP1;P1;durP2;ratioP2;P2;SDS_P1;SDS_P2;PMS_P1;PMS_P2;Temp;Humidity;BMP_temperature;BMP_pressure;BME280_temperature;BME280_humidity;BME280_pressure;Samples;Min_cycle;Max_cycle;Signal;HPM_P1;HPM_P2
2023/12/12 00:00:00;;;;;;;7.32;2.63;;;;;;;;;;5067580;28;41537;-76
2023/12/12 00:02:29;;;;;;;6.00;2.80;;;;;;;;;;5064932;28;42691;-74
2023/12/12 00:04:57;;;;;;;3.92;2.60;;;;;;;;;;5048910;28;40351;-76
2023/12/12 00:07:25;;;;;;;5.82;2.60;;;;;;;;;;5063612;28;41765;-74
2023/12/12 00:09:53;;;;;;;7.60;3.33;;;;;;;;;;5055813;28;41542;-74
2023/12/12 00:12:21;;;;;;;5.35;2.88;;;;;;;;;;5068041;28;40145;-74
2023/12/12 00:14:49;;;;;;;5.32;3.08;;;;;;;;;;5065205;28;41864;-74
2023/12/12 00:17:16;;;;;;;5.55;2.60;;;;;;;;;;5068008;28;41131;-74
2023/12/12 00:19:46;;;;;;;4.97;2.13;;;;;;;;;;5066316;28;41517;-74
2023/12/12 00:22:14;;;;;;;4.90;2.40;;;;;;;;;;5060327;28;42296;-74
2023/12/12 00:24:42;;;;;;;5.68;3.10;;;;;;;;;;5060749;28;40259;-74
2023/12/12 00:27:10;;;;;;;4.80;2.63;;;;;;;;;;5067123;28;41091;-74
2023/12/12 00:29:38;;;;;;;4.85;2.63;;;;;;;;;;5066901;28;41975;-74
2023/12/12 00:32:06;;;;;;;4.95;2.40;;;;;;;;;;5064870;28;40251;-74
2023/12/12 00:34:35;;;;;;;5.03;1.88;;;;;;;;;;5067725;28;41669;-74
2023/12/12 00:37:05;;;;;;;5.53;2.80;;;;;;;;;;5064179;28;41130;-74
2023/12/12 00:39:36;;;;;;;4.55;1.95;;;;;;;;;;5067531;28;41172;-74
2023/12/12 00:42:05;;;;;;;4.25;2.10;;;;;;;;;;5064156;28;42406;-74
2023/12/12 00:44:34;;;;;;;6.22;2.67;;;;;;;;;;5066895;28;40104;-74
2023/12/12 00:47:02;;;;;;;4.05;2.00;;;;;;;;;;5066821;28;41960;-74
2023/12/12 00:49:30;;;;;;;6.85;2.33;;;;;;;;;;5064465;28;42326;-74
2023/12/12 00:51:58;;;;;;;4.50;2.25;;;;;;;;;;5063316;28;39853;-74
2023/12/12 00:54:27;;;;;;;4.65;2.13;;;;;;;;;;5042953;28;40942;-74
2023/12/12 00:56:55;;;;;;;5.50;2.80;;;;;;;;;;5057817;28;42373;-74
2023/12/12 00:59:23;;;;;;;6.90;2.45;;;;;;;;;;5066578;28;41661;-74
2023/12/12 01:01:51;;;;;;;3.67;1.90;;;;;;;;;;5065334;28;42187;-74
2023/12/12 01:04:20;;;;;;;4.78;2.67;;;;;;;;;;5065614;28;40853;-74
2023/12/12 01:06:48;;;;;;;4.35;2.40;;;;;;;;;;5067147;28;40814;-74
2023/12/12 01:09:16;;;;;;;4.22;2.05;;;;;;;;;;5070126;28;41892;-74
2023/12/12 01:11:45;;;;;;;4.82;2.40;;;;;;;;;;5069782;28;40283;-74
2023/12/12 01:14:13;;;;;;;4.70;2.40;;;;;;;;;;5057041;28;42621;-74
2023/12/12 01:16:41;;;;;;;5.85;2.38;;;;;;;;;;5070765;28;42959;-74
2023/12/12 01:19:09;;;;;;;4.55;2.67;;;;;;;;;;5070113;28;41175;-74
2023/12/12 01:21:37;;;;;;;3.58;2.20;;;;;;;;;;5060149;28;43401;-74
2023/12/12 01:24:05;;;;;;;3.88;2.20;;;;;;;;;;5037412;28;38982;-74
2023/12/12 01:26:33;;;;;;;4.13;2.22;;;;;;;;;;5070382;28;41428;-74
2023/12/12 01:29:03;;;;;;;5.45;2.38;;;;;;;;;;5061715;28;42996;-74
2023/12/12 01:31:31;;;;;;;5.90;2.28;;;;;;;;;;5050115;28;41353;-74
2023/12/12 01:33:59;;;;;;;4.50;2.55;;;;;;;;;;5042937;28;41532;-74
2023/12/12 01:36:27;;;;;;;3.65;2.28;;;;;;;;;;5074250;28;41995;-74
2023/12/12 01:38:55;;;;;;;4.07;2.85;;;;;;;;;;5068613;28;39980;-74
2023/12/12 01:41:23;;;;;;;4.60;2.10;;;;;;;;;;5066473;28;41535;-74
2023/12/12 01:43:51;;;;;;;5.72;2.50;;;;;;;;;;5070604;28;41041;-74
2023/12/12 01:46:20;;;;;;;4.82;2.75;;;;;;;;;;5069116;28;42295;-74
2023/12/12 01:48:48;;;;;;;5.40;1.98;;;;;;;;;;5051915;28;41627;-74
2023/12/12 01:51:17;;;;;;;3.40;1.83;;;;;;;;;;5069940;28;41366;-74
2023/12/12 01:53:45;;;;;;;4.13;2.45;;;;;;;;;;5055229;28;41659;-74
2023/12/12 01:56:13;;;;;;;4.20;2.03;;;;;;;;;;5057134;28;42194;-74
2023/12/12 01:58:41;;;;;;;4.30;2.20;;;;;;;;;;5073083;28;41357;-74
2023/12/12 02:01:09;;;;;;;4.55;2.10;;;;;;;;;;5077723;28;42700;-74
2023/12/12 02:03:39;;;;;;;4.30;2.03;;;;;;;;;;5069617;28;40485;-74
2023/12/12 02:06:07;;;;;;;4.90;1.80;;;;;;;;;;5069906;28;41596;-74
2023/12/12 02:08:35;;;;;;;5.40;2.47;;;;;;;;;;5068542;28;41852;-74
2023/12/12 02:11:03;;;;;;;3.65;2.45;;;;;;;;;;5069323;28;41287;-74
2023/12/12 02:13:31;;;;;;;6.10;2.65;;;;;;;;;;5070198;28;41246;-74
2023/12/12 02:15:59;;;;;;;5.03;2.63;;;;;;;;;;5073895;28;41467;-74
2023/12/12 02:18:27;;;;;;;5.47;2.70;;;;;;;;;;5062343;28;40094;-74
2023/12/12 02:20:56;;;;;;;4.40;2.00;;;;;;;;;;5068957;28;41803;-74
2023/12/12 02:23:25;;;;;;;3.58;2.28;;;;;;;;;;5068919;28;41874;-74
2023/12/12 02:25:53;;;;;;;3.65;1.95;;;;;;;;;;5061570;28;42375;-74
2023/12/12 02:28:21;;;;;;;4.70;1.77;;;;;;;;;;5069281;28;43260;-74
2023/12/12 02:30:49;;;;;;;4.40;2.40;;;;;;;;;;5061249;28;39668;-74
2023/12/12 02:33:17;;;;;;;2.85;2.17;;;;;;;;;;5064867;28;42306;-74
2023/12/12 02:35:46;;;;;;;4.35;2.53;;;;;;;;;;5053221;28;42098;-74
2023/12/12 02:38:14;;;;;;;4.40;2.03;;;;;;;;;;5068818;28;40842;-74
2023/12/12 02:40:43;;;;;;;3.90;2.15;;;;;;;;;;5068924;28;41499;-74
2023/12/12 02:43:12;;;;;;;4.43;2.40;;;;;;;;;;5067660;28;42882;-74
2023/12/12 02:45:40;;;;;;;4.93;2.13;;;;;;;;;;5053286;28;41320;-74
2023/12/12 02:48:08;;;;;;;4.72;1.90;;;;;;;;;;5080460;28;42084;-74
2023/12/12 02:50:36;;;;;;;3.38;1.75;;;;;;;;;;5068668;28;40194;-74
2023/12/12 02:53:04;;;;;;;4.00;2.22;;;;;;;;;;5047832;28;39900;-74
2023/12/12 02:55:32;;;;;;;4.38;1.98;;;;;;;;;;5065274;28;42787;-74
2023/12/12 02:58:01;;;;;;;3.75;2.10;;;;;;;;;;5057547;28;39872;-74
2023/12/12 03:00:29;;;;;;;3.47;2.00;;;;;;;;;;5041477;28;40999;-74
2023/12/12 03:02:57;;;;;;;6.32;2.25;;;;;;;;;;5064296;28;42142;-74
2023/12/12 03:05:25;;;;;;;6.60;2.55;;;;;;;;;;5066963;28;40303;-74
2023/12/12 03:07:53;;;;;;;5.25;2.50;;;;;;;;;;5068764;28;42630;-73
2023/12/12 03:10:21;;;;;;;4.18;2.03;;;;;;;;;;5081832;28;41001;-73
2023/12/12 03:12:49;;;;;;;4.00;2.47;;;;;;;;;;5068233;28;41525;-74
2023/12/12 03:15:18;;;;;;;4.13;2.47;;;;;;;;;;5062772;28;41939;-74
2023/12/12 03:17:46;;;;;;;7.63;2.97;;;;;;;;;;5066827;28;40270;-74
2023/12/12 03:20:14;;;;;;;3.97;2.08;;;;;;;;;;5068617;28;42398;-74
2023/12/12 03:22:42;;;;;;;3.30;2.50;;;;;;;;;;5068087;28;41834;-74
2023/12/12 03:25:12;;;;;;;2.20;1.65;;;;;;;;;;5067895;28;39957;-74
2023/12/12 03:27:40;;;;;;;4.15;2.65;;;;;;;;;;5079930;28;41294;-74
2023/12/12 03:30:09;;;;;;;2.25;1.90;;;;;;;;;;5068066;28;42069;-74
2023/12/12 03:32:39;;;;;;;4.38;2.63;;;;;;;;;;5066096;28;42568;-74
2023/12/12 03:35:07;;;;;;;3.85;2.55;;;;;;;;;;5048016;28;41769;-74
2023/12/12 03:37:35;;;;;;;4.93;2.20;;;;;;;;;;5062698;28;41459;-74
2023/12/12 03:40:04;;;;;;;5.20;2.25;;;;;;;;;;5047533;28;41031;-74
2023/12/12 03:42:32;;;;;;;5.00;2.55;;;;;;;;;;5066551;28;42209;-74
2023/12/12 03:45:00;;;;;;;4.85;2.38;;;;;;;;;;5063587;28;40322;-74
2023/12/12 03:47:28;;;;;;;4.13;2.10;;;;;;;;;;5065849;28;42630;-74
2023/12/12 03:49:58;;;;;;;4.38;2.30;;;;;;;;;;5033467;28;41035;-74
2023/12/12 03:52:25;;;;;;;5.43;2.47;;;;;;;;;;5066108;28;40297;-73
2023/12/12 03:54:54;;;;;;;5.07;2.10;;;;;;;;;;5065044;28;42738;-74
2023/12/12 03:57:21;;;;;;;3.72;2.25;;;;;;;;;;5065838;28;39954;-74
2023/12/12 03:59:49;;;;;;;4.53;2.38;;;;;;;;;;5067312;28;41234;-74
2023/12/12 04:02:17;;;;;;;3.50;1.95;;;;;;;;;;5066906;28;43304;-74
2023/12/12 04:04:45;;;;;;;4.88;2.33;;;;;;;;;;5058314;28;41145;-73
2023/12/12 04:07:15;;;;;;;3.40;2.00;;;;;;;;;;5066342;28;42598;-74
2023/12/12 04:09:43;;;;;;;3.50;2.13;;;;;;;;;;5067610;28;43143;-73
2023/12/12 04:12:11;;;;;;;5.57;2.50;;;;;;;;;;5056811;28;41326;-74
2023/12/12 04:14:39;;;;;;;4.38;1.90;;;;;;;;;;5067268;28;41964;-74
2023/12/12 04:17:07;;;;;;;3.83;2.42;;;;;;;;;;5067689;28;40403;-74
2023/12/12 04:19:35;;;;;;;3.70;2.22;;;;;;;;;;5067703;28;41795;-74
2023/12/12 04:22:04;;;;;;;6.38;2.97;;;;;;;;;;5068041;28;41930;-74
2023/12/12 04:24:33;;;;;;;5.57;2.88;;;;;;;;;;5071350;28;40783;-73
2023/12/12 04:27:01;;;;;;;3.10;2.03;;;;;;;;;;5081055;28;41690;-73
2023/12/12 04:29:29;;;;;;;4.05;1.75;;;;;;;;;;5077853;28;42262;-74
2023/12/12 04:31:57;;;;;;;4.25;2.63;;;;;;;;;;5068356;28;41283;-74
2023/12/12 04:34:25;;;;;;;4.68;2.80;;;;;;;;;;5059553;28;41225;-74
2023/12/12 04:36:53;;;;;;;3.42;2.17;;;;;;;;;;5066572;28;40232;-73
2023/12/12 04:39:21;;;;;;;4.25;2.10;;;;;;;;;;5059215;28;40444;-74
2023/12/12 04:41:50;;;;;;;3.95;2.53;;;;;;;;;;5075850;28;42228;-74
2023/12/12 04:44:18;;;;;;;4.50;2.83;;;;;;;;;;5064431;28;39922;-74
2023/12/12 04:46:46;;;;;;;3.30;2.17;;;;;;;;;;5061553;28;42111;-73
2023/12/12 04:49:15;;;;;;;5.35;2.45;;;;;;;;;;5069947;28;42830;-73
2023/12/12 04:51:43;;;;;;;3.70;2.25;;;;;;;;;;5061813;28;40927;-73
2023/12/12 04:54:11;;;;;;;4.88;3.05;;;;;;;;;;5080472;28;42646;-74
2023/12/12 04:56:39;;;;;;;2.63;1.90;;;;;;;;;;5051626;28;41045;-73
2023/12/12 04:59:08;;;;;;;4.15;2.70;;;;;;;;;;5052245;28;41499;-73
2023/12/12 05:01:36;;;;;;;3.65;1.73;;;;;;;;;;5088690;28;42148;-73
2023/12/12 05:04:04;;;;;;;3.70;1.90;;;;;;;;;;5050394;28;42021;-74
2023/12/12 05:06:32;;;;;;;3.47;2.33;;;;;;;;;;5070566;28;41685;-74
2023/12/12 05:09:00;;;;;;;4.10;2.05;;;;;;;;;;5081976;28;41814;-73
2023/12/12 05:11:29;;;;;;;4.30;2.47;;;;;;;;;;5089973;28;40382;-75
2023/12/12 05:13:57;;;;;;;3.47;2.25;;;;;;;;;;5079976;28;41317;-74
2023/12/12 05:16:27;;;;;;;4.65;2.78;;;;;;;;;;5072645;28;42638;-73
2023/12/12 05:18:59;;;;;;;4.10;1.90;;;;;;;;;;5066170;28;40169;-74
2023/12/12 05:21:28;;;;;;;2.55;1.73;;;;;;;;;;5070589;28;42593;-73
2023/12/12 05:23:56;;;;;;;3.47;1.90;;;;;;;;;;5069965;28;41082;-73
2023/12/12 05:26:24;;;;;;;5.13;2.30;;;;;;;;;;5069663;28;41408;-74
2023/12/12 05:28:52;;;;;;;3.78;2.47;;;;;;;;;;5055288;28;41490;-73
2023/12/12 05:31:24;;;;;;;4.07;2.15;;;;;;;;;;5049374;28;40562;-73
2023/12/12 05:33:53;;;;;;;3.47;1.98;;;;;;;;;;5058692;28;42204;-73
2023/12/12 05:36:22;;;;;;;3.67;2.13;;;;;;;;;;5068703;28;41825;-74
2023/12/12 05:38:51;;;;;;;3.53;2.65;;;;;;;;;;5056459;28;41430;-73
2023/12/12 05:41:19;;;;;;;3.03;2.30;;;;;;;;;;5063908;28;41889;-73
2023/12/12 05:43:47;;;;;;;4.50;2.40;;;;;;;;;;5059604;28;42078;-74
2023/12/12 05:46:15;;;;;;;4.30;2.40;;;;;;;;;;5047128;28;40745;-74
2023/12/12 05:48:43;;;;;;;4.63;2.10;;;;;;;;;;5049835;28;43296;-73
2023/12/12 05:51:12;;;;;;;3.60;2.08;;;;;;;;;;5063293;28;40127;-74
2023/12/12 05:53:41;;;;;;;4.63;2.45;;;;;;;;;;5048400;28;42768;-74
2023/12/12 05:56:10;;;;;;;4.82;2.35;;;;;;;;;;5064066;28;42846;-73
2023/12/12 05:58:38;;;;;;;2.72;1.80;;;;;;;;;;5069759;28;40613;-73
2023/12/12 06:01:06;;;;;;;3.97;2.25;;;;;;;;;;5067726;28;42751;-74
2023/12/12 06:03:34;;;;;;;4.82;2.50;;;;;;;;;;5064139;28;32686;-74
2023/12/12 06:06:07;;;;;;;4.07;3.00;;;;;;;;;;5069227;28;42270;-73
2023/12/12 06:08:37;;;;;;;4.32;2.45;;;;;;;;;;5052720;28;41977;-74
2023/12/12 06:11:06;;;;;;;2.63;1.80;;;;;;;;;;5064330;28;41428;-74
2023/12/12 06:13:35;;;;;;;3.90;2.03;;;;;;;;;;5069492;28;42334;-74
2023/12/12 06:16:04;;;;;;;2.55;1.95;;;;;;;;;;5069068;28;42778;-74
2023/12/12 06:18:32;;;;;;;2.92;1.85;;;;;;;;;;5053515;28;40343;-74
2023/12/12 06:21:00;;;;;;;2.65;1.70;;;;;;;;;;5059319;28;41419;-74
2023/12/12 06:23:29;;;;;;;3.08;2.35;;;;;;;;;;5065228;28;43112;-73
2023/12/12 06:25:58;;;;;;;2.08;1.65;;;;;;;;;;5059579;28;42617;-74
2023/12/12 06:28:26;;;;;;;3.25;2.20;;;;;;;;;;5059408;28;43140;-73
2023/12/12 06:30:54;;;;;;;3.60;1.77;;;;;;;;;;5064484;28;40324;-74
2023/12/12 06:33:24;;;;;;;3.88;1.73;;;;;;;;;;5067029;28;42717;-74
2023/12/12 06:35:52;;;;;;;2.45;1.95;;;;;;;;;;5064934;28;42921;-73
2023/12/12 06:38:20;;;;;;;3.92;2.13;;;;;;;;;;5062038;28;39830;-74
2023/12/12 06:40:48;;;;;;;3.20;1.95;;;;;;;;;;5053958;28;41096;-74
2023/12/12 06:43:17;;;;;;;3.38;2.30;;;;;;;;;;5063888;28;43358;-73
2023/12/12 06:45:45;;;;;;;5.38;2.08;;;;;;;;;;5065096;28;40317;-73
2023/12/12 06:48:13;;;;;;;3.00;2.00;;;;;;;;;;5064976;28;42150;-74
2023/12/12 06:50:41;;;;;;;2.90;1.90;;;;;;;;;;5045452;28;39619;-74
2023/12/12 06:53:10;;;;;;;4.43;2.45;;;;;;;;;;5032286;28;41826;-75
2023/12/12 06:55:38;;;;;;;2.67;2.35;;;;;;;;;;5066327;28;41738;-75
2023/12/12 06:58:06;;;;;;;2.95;2.38;;;;;;;;;;5052570;28;40083;-74
2023/12/12 07:00:36;;;;;;;3.83;2.15;;;;;;;;;;5060173;28;41332;-74
2023/12/12 07:03:04;;;;;;;3.28;2.10;;;;;;;;;;5063756;28;41600;-74
2023/12/12 07:05:33;;;;;;;3.17;1.83;;;;;;;;;;5064716;28;40064;-74
2023/12/12 07:08:02;;;;;;;3.83;2.28;;;;;;;;;;5067993;28;42309;-74
2023/12/12 07:10:30;;;;;;;3.75;1.80;;;;;;;;;;5067674;28;41397;-74
2023/12/12 07:12:58;;;;;;;3.35;2.13;;;;;;;;;;5061217;28;41510;-73
2023/12/12 07:15:45;;;;;;;3.13;1.83;;;;;;;;;;5054957;28;41927;-73
2023/12/12 07:18:14;;;;;;;2.97;2.08;;;;;;;;;;5057197;28;40641;-73
2023/12/12 07:20:42;;;;;;;3.58;2.40;;;;;;;;;;5058038;28;42177;-73
2023/12/12 07:23:10;;;;;;;5.28;2.33;;;;;;;;;;5057387;28;42181;-71
2023/12/12 07:25:41;;;;;;;3.58;2.03;;;;;;;;;;5061127;28;41286;-73
2023/12/12 07:28:09;;;;;;;5.05;2.22;;;;;;;;;;5054236;28;42552;-74
2023/12/12 07:30:37;;;;;;;4.40;2.30;;;;;;;;;;5046851;28;39974;-74
2023/12/12 07:33:08;;;;;;;2.42;1.77;;;;;;;;;;5064788;28;41575;-74
2023/12/12 07:35:36;;;;;;;4.43;2.70;;;;;;;;;;5061890;28;42074;-74
2023/12/12 07:38:04;;;;;;;4.13;2.08;;;;;;;;;;5065687;28;40157;-74
2023/12/12 07:40:32;;;;;;;5.70;2.90;;;;;;;;;;5065099;28;42694;-74
2023/12/12 07:43:00;;;;;;;9.82;7.22;;;;;;;;;;5062185;28;42512;-74
2023/12/12 07:45:28;;;;;;;6.57;4.00;;;;;;;;;;5066031;28;41363;-74
2023/12/12 07:47:56;;;;;;;5.30;2.92;;;;;;;;;;5066753;28;41753;-74
2023/12/12 07:50:26;;;;;;;5.45;2.90;;;;;;;;;;5056978;28;42732;-74
2023/12/12 07:52:54;;;;;;;11.95;3.22;;;;;;;;;;5061177;28;39841;-74
2023/12/12 07:55:22;;;;;;;9.07;3.15;;;;;;;;;;5057211;28;43109;-74
2023/12/12 07:57:50;;;;;;;5.40;2.40;;;;;;;;;;5067220;28;39841;-74
2023/12/12 08:00:19;;;;;;;10.02;3.22;;;;;;;;;;5060714;28;41831;-74
2023/12/12 08:02:47;;;;;;;4.47;2.72;;;;;;;;;;5062774;28;42135;-74
2023/12/12 08:05:15;;;;;;;5.95;2.55;;;;;;;;;;5052979;28;40314;-74
2023/12/12 08:07:44;;;;;;;3.63;2.53;;;;;;;;;;5061825;28;41312;-74
2023/12/12 08:10:12;;;;;;;9.68;3.10;;;;;;;;;;5064215;28;42879;-74
2023/12/12 08:12:40;;;;;;;5.60;2.58;;;;;;;;;;5055901;28;40628;-74
2023/12/12 08:15:09;;;;;;;3.88;2.50;;;;;;;;;;5059135;28;41886;-74
2023/12/12 08:17:36;;;;;;;4.40;2.80;;;;;;;;;;5068191;28;40094;-74
2023/12/12 08:20:05;;;;;;;5.03;2.75;;;;;;;;;;5067026;28;41971;-73
2023/12/12 08:22:33;;;;;;;5.07;3.05;;;;;;;;;;5071852;28;41791;-73
2023/12/12 08:25:05;;;;;;;6.75;2.55;;;;;;;;;;5077130;28;40375;-73
2023/12/12 08:27:33;;;;;;;5.72;3.00;;;;;;;;;;5049410;28;40034;-73
2023/12/12 08:30:04;;;;;;;5.22;2.58;;;;;;;;;;5067216;28;41967;-73
2023/12/12 08:32:32;;;;;;;7.20;3.28;;;;;;;;;;5054589;28;41918;-74
2023/12/12 08:35:00;;;;;;;4.97;2.60;;;;;;;;;;5055657;28;41109;-74
2023/12/12 08:37:27;;;;;;;6.22;2.65;;;;;;;;;;5063006;28;40369;-73
2023/12/12 08:39:55;;;;;;;8.38;2.60;;;;;;;;;;5067765;28;42580;-74
2023/12/12 08:42:25;;;;;;;5.65;2.30;;;;;;;;;;5067075;28;42665;-73
2023/12/12 08:44:54;;;;;;;5.13;2.40;;;;;;;;;;5066494;28;42496;-73
2023/12/12 08:47:22;;;;;;;7.00;3.15;;;;;;;;;;5066267;28;42278;-73
2023/12/12 08:49:52;;;;;;;5.47;2.80;;;;;;;;;;5047981;28;41754;-73
2023/12/12 08:52:20;;;;;;;6.80;3.00;;;;;;;;;;5049784;28;40390;-73
2023/12/12 08:54:48;;;;;;;4.43;2.42;;;;;;;;;;5051445;28;41533;-74
2023/12/12 08:57:17;;;;;;;9.68;3.30;;;;;;;;;;5067026;28;42890;-74
2023/12/12 08:59:47;;;;;;;8.73;2.78;;;;;;;;;;5054856;28;42031;-74
2023/12/12 09:02:14;;;;;;;6.65;3.03;;;;;;;;;;5059053;28;43046;-73
2023/12/12 09:04:42;;;;;;;12.07;2.58;;;;;;;;;;5072358;28;40771;-73
2023/12/12 09:07:10;;;;;;;5.20;2.60;;;;;;;;;;5064113;28;42509;-73
2023/12/12 09:09:38;;;;;;;5.85;2.80;;;;;;;;;;5039111;28;40522;-73
2023/12/12 09:12:09;;;;;;;5.82;3.17;;;;;;;;;;5058072;28;39389;-74
2023/12/12 09:14:37;;;;;;;5.50;2.40;;;;;;;;;;5059472;28;42623;-74
2023/12/12 09:17:06;;;;;;;7.45;2.42;;;;;;;;;;5055402;28;41943;-76
2023/12/12 09:19:35;;;;;;;7.03;3.38;;;;;;;;;;5040316;28;40075;-76
2023/12/12 09:22:04;;;;;;;6.63;2.45;;;;;;;;;;5060804;28;41316;-75
2023/12/12 09:24:33;;;;;;;6.18;2.58;;;;;;;;;;5048268;28;39890;-75
2023/12/12 09:27:01;;;;;;;7.07;3.42;;;;;;;;;;5048524;28;42619;-75
2023/12/12 09:29:29;;;;;;;7.72;2.65;;;;;;;;;;5054035;28;42049;-75
2023/12/12 09:31:57;;;;;;;5.18;2.42;;;;;;;;;;5066572;28;41350;-75
2023/12/12 09:34:26;;;;;;;4.88;2.70;;;;;;;;;;5062724;28;42377;-75
2023/12/12 09:36:54;;;;;;;4.68;2.40;;;;;;;;;;5070136;28;43191;-75
2023/12/12 09:39:22;;;;;;;5.13;2.72;;;;;;;;;;5065655;28;39907;-75
2023/12/12 09:41:51;;;;;;;6.70;2.60;;;;;;;;;;5065392;28;42469;-77
2023/12/12 09:44:19;;;;;;;3.88;2.38;;;;;;;;;;5069828;28;40274;-75
2023/12/12 09:46:47;;;;;;;6.00;2.42;;;;;;;;;;5068579;28;41578;-75
2023/12/12 09:49:15;;;;;;;5.38;2.33;;;;;;;;;;5066998;28;41976;-75
2023/12/12 09:51:44;;;;;;;5.00;2.28;;;;;;;;;;5054422;28;40918;-75
2023/12/12 09:54:12;;;;;;;5.82;2.58;;;;;;;;;;5070636;28;41656;-75
2023/12/12 09:56:40;;;;;;;5.28;2.40;;;;;;;;;;5064538;28;41955;-74
2023/12/12 09:59:08;;;;;;;12.23;2.70;;;;;;;;;;5050708;28;41353;-75
2023/12/12 10:01:36;;;;;;;9.70;3.30;;;;;;;;;;5064222;28;41814;-75
2023/12/12 10:04:05;;;;;;;6.50;2.50;;;;;;;;;;5069692;28;42775;-74
2023/12/12 10:06:34;;;;;;;10.95;2.42;;;;;;;;;;5070467;28;41479;-73
2023/12/12 10:09:03;;;;;;;8.25;3.08;;;;;;;;;;5065498;28;41645;-74
2023/12/12 10:11:31;;;;;;;4.47;2.30;;;;;;;;;;5067399;28;41298;-73
2023/12/12 10:14:00;;;;;;;4.85;2.50;;;;;;;;;;5066554;28;41582;-74
2023/12/12 10:16:30;;;;;;;5.88;2.60;;;;;;;;;;5066233;28;41654;-74
2023/12/12 10:19:01;;;;;;;5.10;2.25;;;;;;;;;;5069661;28;40217;-74
2023/12/12 10:21:29;;;;;;;6.53;2.17;;;;;;;;;;5044048;28;40755;-75
2023/12/12 10:23:58;;;;;;;7.70;2.97;;;;;;;;;;5065178;28;42246;-76
2023/12/12 10:26:29;;;;;;;7.45;2.58;;;;;;;;;;5072427;28;41454;-74
2023/12/12 10:28:58;;;;;;;6.53;2.63;;;;;;;;;;5063124;28;41420;-75
2023/12/12 10:31:26;;;;;;;10.38;2.75;;;;;;;;;;5071006;28;41425;-74
2023/12/12 10:33:55;;;;;;;6.95;2.85;;;;;;;;;;5067638;28;42678;-74
2023/12/12 10:36:24;;;;;;;6.40;2.78;;;;;;;;;;5059482;28;41927;-75
2023/12/12 10:38:53;;;;;;;8.00;3.25;;;;;;;;;;5062011;28;40010;-76
2023/12/12 10:41:21;;;;;;;8.73;2.60;;;;;;;;;;5067617;28;41862;-73
2023/12/12 10:43:55;;;;;;;10.20;3.30;;;;;;;;;;5052063;28;41925;-75
2023/12/12 10:46:23;;;;;;;8.35;3.00;;;;;;;;;;5067754;28;40663;-75
2023/12/12 10:48:52;;;;;;;5.60;2.60;;;;;;;;;;5062012;28;41737;-71
2023/12/12 10:51:21;;;;;;;6.47;2.88;;;;;;;;;;5064612;28;39914;-74
2023/12/12 10:53:51;;;;;;;8.98;3.25;;;;;;;;;;5060294;28;42287;-74
2023/12/12 10:56:19;;;;;;;6.85;2.60;;;;;;;;;;5067763;28;42204;-74
2023/12/12 10:58:47;;;;;;;6.75;2.55;;;;;;;;;;5062082;28;40379;-75
2023/12/12 11:01:17;;;;;;;6.45;3.00;;;;;;;;;;5067153;28;41240;-75
2023/12/12 11:03:45;;;;;;;7.40;3.25;;;;;;;;;;5067189;28;41799;-74
2023/12/12 11:06:14;;;;;;;7.57;2.72;;;;;;;;;;5068323;28;41504;-75
2023/12/12 11:08:46;;;;;;;5.03;2.53;;;;;;;;;;5068210;28;20233;-76
2023/12/12 11:11:14;;;;;;;6.25;2.88;;;;;;;;;;5067720;28;40442;-76
2023/12/12 11:13:42;;;;;;;9.38;5.20;;;;;;;;;;5065014;28;41545;-76
2023/12/12 11:16:10;;;;;;;6.30;3.15;;;;;;;;;;5067717;28;40940;-77
2023/12/12 11:18:40;;;;;;;8.23;2.75;;;;;;;;;;5049486;28;40521;-76
2023/12/12 11:21:08;;;;;;;6.85;3.55;;;;;;;;;;5066684;28;42578;-77
2023/12/12 11:23:56;;;;;;;7.72;3.38;;;;;;;;;;5067574;28;41780;-73
2023/12/12 11:26:24;;;;;;;18.08;7.30;;;;;;;;;;5060408;28;40891;-73
2023/12/12 11:28:53;;;;;;;9.52;4.60;;;;;;;;;;5066115;28;40552;-73
2023/12/12 11:31:22;;;;;;;10.38;4.35;;;;;;;;;;5065993;28;42018;-72
2023/12/12 11:34:04;;;;;;;10.73;5.45;;;;;;;;;;5064300;28;42452;-72
2023/12/12 11:36:49;;;;;;;12.52;5.38;;;;;;;;;;5060281;28;42082;-71
2023/12/12 11:39:24;;;;;;;10.80;5.60;;;;;;;;;;5062762;28;40057;-72
2023/12/12 11:41:52;;;;;;;12.10;6.47;;;;;;;;;;5066850;28;41463;-71
2023/12/12 11:44:20;;;;;;;10.48;5.50;;;;;;;;;;5044114;28;42195;-72
2023/12/12 11:46:48;;;;;;;14.55;6.03;;;;;;;;;;5066952;28;41041;-71
2023/12/12 11:49:20;;;;;;;12.20;5.90;;;;;;;;;;5062223;28;42562;-71
2023/12/12 11:51:50;;;;;;;13.82;5.65;;;;;;;;;;5055499;28;41934;-71
2023/12/12 11:54:18;;;;;;;12.07;6.13;;;;;;;;;;5064552;28;40700;-72
2023/12/12 11:56:46;;;;;;;12.50;6.07;;;;;;;;;;5059673;28;41559;-71
2023/12/12 11:59:20;;;;;;;13.18;5.47;;;;;;;;;;5065346;28;40388;-71
2023/12/12 12:01:49;;;;;;;13.00;6.00;;;;;;;;;;5060197;28;41456;-71
2023/12/12 12:04:17;;;;;;;8.48;5.07;;;;;;;;;;5064204;28;41870;-71
2023/12/12 12:06:46;;;;;;;10.25;5.32;;;;;;;;;;5062336;28;40305;-71
2023/12/12 12:09:15;;;;;;;13.15;4.93;;;;;;;;;;5063994;28;41796;-71
2023/12/12 12:11:45;;;;;;;8.57;4.60;;;;;;;;;;5059030;28;41544;-72
2023/12/12 12:14:13;;;;;;;9.05;5.22;;;;;;;;;;5060689;28;40389;-72
2023/12/12 12:16:41;;;;;;;9.77;4.82;;;;;;;;;;5064724;28;41045;-72
2023/12/12 12:19:28;;;;;;;10.85;4.82;;;;;;;;;;5065213;28;39491;-70
2023/12/12 12:22:00;;;;;;;11.75;4.75;;;;;;;;;;5063527;28;41514;-71
2023/12/12 12:24:29;;;;;;;10.15;4.05;;;;;;;;;;5062655;28;43230;-71
2023/12/12 12:26:57;;;;;;;9.75;4.15;;;;;;;;;;5061794;28;40444;-71
2023/12/12 12:29:25;;;;;;;11.82;4.63;;;;;;;;;;5055454;28;41653;-71
2023/12/12 12:31:53;;;;;;;9.55;4.30;;;;;;;;;;5065129;28;42875;-72
2023/12/12 12:34:21;;;;;;;11.25;4.25;;;;;;;;;;5060818;28;41055;-72
2023/12/12 12:36:51;;;;;;;9.20;4.32;;;;;;;;;;5066358;28;40400;-72
2023/12/12 12:39:23;;;;;;;11.80;4.50;;;;;;;;;;5061133;28;40919;-72
2023/12/12 12:41:53;;;;;;;8.32;4.25;;;;;;;;;;5062936;28;43352;-72
2023/12/12 12:44:21;;;;;;;8.48;4.07;;;;;;;;;;5060235;28;42229;-71
2023/12/12 12:46:50;;;;;;;7.93;3.80;;;;;;;;;;5059844;28;39017;-72
2023/12/12 12:49:18;;;;;;;9.52;3.97;;;;;;;;;;5056078;28;42794;-72
2023/12/12 12:51:47;;;;;;;7.28;3.55;;;;;;;;;;5061457;28;41150;-72
2023/12/12 12:54:15;;;;;;;11.68;4.13;;;;;;;;;;5061364;28;40110;-72
2023/12/12 12:56:47;;;;;;;10.13;3.90;;;;;;;;;;5062408;28;41229;-72
2023/12/12 12:59:18;;;;;;;8.05;3.85;;;;;;;;;;5057800;28;42160;-72
2023/12/12 13:01:46;;;;;;;8.50;3.97;;;;;;;;;;5061648;28;42936;-72
2023/12/12 13:04:14;;;;;;;5.10;3.30;;;;;;;;;;5064956;28;42720;-72
2023/12/12 13:06:42;;;;;;;8.10;3.63;;;;;;;;;;5060995;28;42341;-72
2023/12/12 13:09:17;;;;;;;7.47;3.67;;;;;;;;;;5065378;28;41584;-71
2023/12/12 13:11:46;;;;;;;8.82;3.33;;;;;;;;;;5063802;28;41255;-72
2023/12/12 13:14:15;;;;;;;5.88;3.08;;;;;;;;;;5058351;28;39410;-72
2023/12/12 13:16:43;;;;;;;9.02;4.00;;;;;;;;;;5067887;28;41935;-72
2023/12/12 13:19:13;;;;;;;6.43;3.40;;;;;;;;;;5062167;28;42248;-73
2023/12/12 13:21:41;;;;;;;7.43;3.80;;;;;;;;;;5068967;28;40823;-72
2023/12/12 13:24:09;;;;;;;7.32;3.55;;;;;;;;;;5067662;28;41633;-72
2023/12/12 13:26:37;;;;;;;9.73;3.33;;;;;;;;;;5068791;28;41039;-72
2023/12/12 13:29:07;;;;;;;7.53;3.55;;;;;;;;;;5069757;28;41589;-72
2023/12/12 13:31:35;;;;;;;8.38;3.72;;;;;;;;;;5069997;28;41978;-71
2023/12/12 13:34:03;;;;;;;10.88;4.22;;;;;;;;;;5066981;28;40162;-71
2023/12/12 13:36:34;;;;;;;8.35;3.25;;;;;;;;;;5046742;28;41347;-71
2023/12/12 13:39:03;;;;;;;10.27;3.88;;;;;;;;;;5067011;28;42736;-71
2023/12/12 13:41:32;;;;;;;12.93;3.60;;;;;;;;;;5066087;28;38617;-72
2023/12/12 13:44:00;;;;;;;16.00;3.38;;;;;;;;;;5068477;28;42270;-72
2023/12/12 13:46:29;;;;;;;15.95;3.95;;;;;;;;;;5067520;28;40621;-71
2023/12/12 13:48:58;;;;;;;13.77;3.88;;;;;;;;;;5065923;28;41240;-72
2023/12/12 13:51:26;;;;;;;11.30;3.65;;;;;;;;;;5066432;28;41568;-71
2023/12/12 13:54:08;;;;;;;12.27;3.50;;;;;;;;;;5062976;28;40223;-72
2023/12/12 13:56:36;;;;;;;11.20;3.60;;;;;;;;;;5047726;28;40444;-71
2023/12/12 13:59:05;;;;;;;12.77;4.20;;;;;;;;;;5065524;28;42374;-71
2023/12/12 14:01:36;;;;;;;10.95;4.03;;;;;;;;;;5066476;28;39692;-72
2023/12/12 14:04:05;;;;;;;13.32;3.65;;;;;;;;;;5066280;28;41232;-72
2023/12/12 14:06:34;;;;;;;17.88;4.43;;;;;;;;;;5065316;28;42782;-72
2023/12/12 14:09:03;;;;;;;11.63;3.45;;;;;;;;;;5064394;28;42091;-72
2023/12/12 14:11:31;;;;;;;13.43;3.60;;;;;;;;;;5067951;28;42096;-72
2023/12/12 14:13:59;;;;;;;9.15;2.95;;;;;;;;;;5064270;28;41381;-72
2023/12/12 14:16:27;;;;;;;10.18;3.45;;;;;;;;;;5065029;28;41465;-72
2023/12/12 14:19:01;;;;;;;10.50;3.53;;;;;;;;;;5059058;28;42028;-71
2023/12/12 14:21:29;;;;;;;9.52;3.38;;;;;;;;;;5066709;28;42202;-72
2023/12/12 14:23:57;;;;;;;6.75;3.30;;;;;;;;;;5064095;28;42142;-73
2023/12/12 14:26:25;;;;;;;11.20;3.15;;;;;;;;;;5064486;28;42431;-73
2023/12/12 14:28:53;;;;;;;7.32;3.45;;;;;;;;;;5068508;28;39999;-73
2023/12/12 14:31:21;;;;;;;6.97;2.90;;;;;;;;;;5066069;28;42297;-71
2023/12/12 14:33:49;;;;;;;9.73;3.28;;;;;;;;;;5065878;28;40687;-71
2023/12/12 14:36:19;;;;;;;12.55;3.08;;;;;;;;;;5066478;28;41220;-71
2023/12/12 14:38:47;;;;;;;5.63;2.47;;;;;;;;;;5066542;28;42044;-72
2023/12/12 14:41:15;;;;;;;11.48;3.10;;;;;;;;;;5064494;28;40358;-71
2023/12/12 14:43:46;;;;;;;8.05;3.08;;;;;;;;;;5061750;28;42595;-71
2023/12/12 14:46:14;;;;;;;8.52;3.00;;;;;;;;;;5061719;28;42537;-72
2023/12/12 14:48:43;;;;;;;9.10;2.53;;;;;;;;;;5059627;28;40814;-70